createdAt,value
2023-03-05T00:00:34.649Z,48.88
2023-03-05T00:03:01.254Z,49.48
2023-03-05T00:05:27.843Z,49.62
2023-03-05T00:07:54.405Z,48.47
2023-03-05T00:10:20.999Z,49.34
2023-03-05T00:12:47.621Z,51.81
2023-03-05T00:15:14.235Z,51.24
2023-03-05T00:17:40.953Z,50.89
2023-03-05T00:20:07.501Z,50.32
2023-03-05T00:22:34.095Z,50.40
2023-03-05T00:25:00.664Z,50.27
2023-03-05T00:27:27.254Z,50.70
2023-03-05T00:29:53.822Z,50.77
2023-03-05T00:32:20.416Z,51.10
2023-03-05T00:34:47.076Z,51.17
2023-03-05T00:37:13.853Z,50.92
2023-03-05T00:39:40.454Z,52.49
2023-03-05T00:42:07.046Z,52.95
2023-03-05T00:44:33.625Z,52.04
2023-03-05T00:47:00.230Z,51.46
2023-03-05T00:49:26.786Z,51.86
2023-03-05T00:51:53.407Z,51.56
2023-03-05T00:54:19.963Z,50.79
2023-03-05T00:56:48.713Z,51.25
2023-03-05T00:59:15.286Z,51.50
2023-03-05T01:01:42.095Z,50.87
2023-03-05T01:04:08.689Z,50.73
2023-03-05T01:06:35.401Z,51.18
2023-03-05T01:09:01.975Z,51.94
2023-03-05T01:11:28.588Z,53.01
2023-03-05T01:13:55.221Z,52.76
2023-03-05T01:16:21.846Z,52.02
2023-03-05T01:18:48.519Z,52.05
2023-03-05T01:21:15.105Z,51.79
2023-03-05T01:23:41.704Z,51.69
2023-03-05T01:26:08.264Z,51.45
2023-03-05T01:28:34.815Z,51.91
2023-03-05T01:31:01.450Z,51.90
2023-03-05T01:33:28.044Z,51.49
2023-03-05T01:35:54.636Z,52.91
2023-03-05T01:38:21.253Z,52.02
2023-03-05T01:40:47.867Z,52.01
2023-03-05T01:43:14.465Z,52.24
2023-03-05T01:45:41.352Z,52.81
2023-03-05T01:48:07.943Z,53.61
2023-03-05T01:50:34.506Z,53.86
2023-03-05T01:53:01.119Z,54.07
2023-03-05T01:55:27.705Z,53.50
2023-03-05T01:57:54.300Z,53.31
2023-03-05T02:00:21.169Z,52.08
2023-03-05T02:02:47.759Z,52.04
2023-03-05T02:05:14.346Z,52.86
2023-03-05T02:07:41.024Z,52.23
2023-03-05T02:10:07.684Z,51.76
2023-03-05T02:12:34.278Z,51.94
2023-03-05T02:15:00.833Z,52.68
2023-03-05T02:17:28.284Z,53.25
2023-03-05T02:19:54.868Z,52.63
2023-03-05T02:22:21.435Z,52.34
2023-03-05T02:24:48.008Z,52.17
2023-03-05T02:27:14.606Z,51.75
2023-03-05T02:29:41.182Z,53.28
2023-03-05T02:32:07.887Z,52.84
2023-03-05T02:34:34.711Z,52.95
2023-03-05T02:37:01.337Z,52.83
2023-03-05T02:39:27.915Z,52.55
2023-03-05T02:41:54.486Z,53.00
2023-03-05T02:44:21.165Z,52.76
2023-03-05T02:46:47.762Z,54.29
2023-03-05T02:49:14.347Z,55.67
2023-03-05T02:51:40.958Z,56.05
2023-03-05T02:54:07.558Z,54.79
2023-03-05T02:56:34.149Z,54.33
2023-03-05T02:59:00.738Z,53.99
2023-03-05T03:01:27.380Z,54.09
2023-03-05T03:03:53.963Z,56.11
2023-03-05T03:06:20.537Z,55.91
2023-03-05T03:08:47.145Z,54.74
2023-03-05T03:11:13.718Z,54.00
2023-03-05T03:13:40.321Z,54.93
2023-03-05T03:16:06.883Z,54.33
2023-03-05T03:18:33.516Z,54.83
2023-03-05T03:21:00.107Z,54.86
2023-03-05T03:23:26.894Z,54.31
2023-03-05T03:25:53.493Z,53.79
2023-03-05T03:28:20.066Z,53.41
2023-03-05T03:30:46.787Z,54.83
2023-03-05T03:33:13.356Z,55.10
2023-03-05T03:35:40.129Z,55.04
2023-03-05T03:38:06.826Z,54.20
2023-03-05T03:40:33.475Z,53.43
2023-03-05T03:43:00.040Z,53.96
2023-03-05T03:45:26.637Z,53.39
2023-03-05T03:47:53.199Z,53.62
2023-03-05T03:50:19.840Z,52.83
2023-03-05T03:52:46.481Z,54.09
2023-03-05T03:55:13.041Z,53.49
2023-03-05T03:57:39.645Z,54.58
2023-03-05T04:00:06.206Z,54.16
2023-03-05T04:02:32.806Z,54.75
2023-03-05T04:04:59.408Z,55.05
2023-03-05T04:07:25.967Z,54.56
2023-03-05T04:09:52.570Z,55.76
2023-03-05T04:12:19.140Z,55.60
2023-03-05T04:14:45.708Z,56.23
2023-03-05T04:17:12.313Z,55.79
2023-03-05T04:19:38.873Z,55.75
2023-03-05T04:22:05.487Z,55.19
2023-03-05T04:24:32.042Z,55.06
2023-03-05T04:26:58.680Z,56.84
2023-03-05T04:29:25.272Z,56.98
2023-03-05T04:31:51.850Z,56.47
2023-03-05T04:34:18.433Z,56.15
2023-03-05T04:36:45.011Z,57.69
2023-03-05T04:39:11.801Z,57.04
2023-03-05T04:41:38.375Z,56.09
2023-03-05T04:44:04.937Z,55.69
2023-03-05T04:46:31.590Z,55.10
2023-03-05T04:48:58.201Z,55.11
2023-03-05T04:51:24.815Z,55.33
2023-03-05T04:53:51.391Z,56.63
2023-03-05T04:56:18.008Z,56.21
2023-03-05T04:58:44.606Z,56.22
2023-03-05T05:01:11.198Z,56.88
2023-03-05T05:03:37.779Z,56.27
2023-03-05T05:06:04.377Z,55.86
2023-03-05T05:08:30.959Z,56.50
2023-03-05T05:10:57.541Z,55.77
2023-03-05T05:13:24.121Z,56.35
2023-03-05T05:15:50.696Z,56.22
2023-03-05T05:18:17.263Z,55.85
2023-03-05T05:20:43.831Z,55.90
2023-03-05T05:23:10.395Z,55.87
2023-03-05T05:25:36.984Z,56.03
2023-03-05T05:28:03.574Z,55.42
2023-03-05T05:30:30.315Z,55.91
2023-03-05T05:32:56.953Z,56.39
2023-03-05T05:35:23.573Z,56.52
2023-03-05T05:37:50.169Z,56.42
2023-03-05T05:40:16.843Z,56.16
2023-03-05T05:42:43.411Z,56.31
2023-03-05T05:45:10.036Z,56.45
2023-03-05T05:47:36.664Z,56.71
2023-03-05T05:50:03.222Z,56.49
2023-03-05T05:52:29.813Z,56.64
2023-03-05T05:54:56.365Z,56.69
2023-03-05T05:57:22.960Z,56.47
2023-03-05T05:59:49.902Z,56.00
2023-03-05T06:02:16.574Z,56.59
2023-03-05T06:04:43.213Z,56.88
2023-03-05T06:07:09.908Z,56.76
2023-03-05T06:09:36.506Z,56.24
2023-03-05T06:12:03.082Z,56.63
2023-03-05T06:14:29.726Z,57.44
2023-03-05T06:16:56.394Z,57.44
2023-03-05T06:19:23.056Z,57.32
2023-03-05T06:21:49.625Z,56.56
2023-03-05T06:24:16.225Z,56.43
2023-03-05T06:26:42.808Z,56.48
2023-03-05T06:29:12.644Z,56.78
2023-03-05T06:31:39.241Z,56.81
2023-03-05T06:34:05.881Z,56.13
2023-03-05T06:36:32.480Z,56.64
2023-03-05T06:38:59.060Z,57.16
2023-03-05T06:41:25.665Z,57.10
2023-03-05T06:43:52.247Z,56.11
2023-03-05T06:46:19.053Z,56.84
2023-03-05T06:48:45.646Z,57.27
2023-03-05T06:51:12.250Z,57.69
2023-03-05T06:53:38.892Z,57.33
2023-03-05T06:56:05.455Z,57.13
2023-03-05T06:58:32.048Z,56.21
2023-03-05T07:00:58.659Z,55.13
2023-03-05T07:03:25.258Z,55.74
2023-03-05T07:05:51.834Z,55.85
2023-03-05T07:08:18.425Z,55.65
2023-03-05T07:10:44.999Z,55.40
2023-03-05T07:13:11.570Z,54.28
2023-03-05T07:15:38.242Z,54.28
2023-03-05T07:18:04.864Z,54.19
2023-03-05T07:20:31.457Z,54.67
2023-03-05T07:22:58.037Z,53.52
2023-03-05T07:25:24.669Z,54.00
2023-03-05T07:27:51.259Z,53.76
2023-03-05T07:30:17.812Z,54.71
2023-03-05T07:32:44.395Z,54.44
2023-03-05T07:35:10.950Z,54.52
2023-03-05T07:37:37.826Z,53.35
2023-03-05T07:40:04.581Z,52.96
2023-03-05T07:42:31.285Z,52.99
2023-03-05T07:44:57.958Z,53.24
2023-03-05T07:47:24.524Z,53.02
2023-03-05T07:49:51.116Z,51.90
2023-03-05T07:52:17.723Z,52.05
2023-03-05T07:54:44.300Z,52.28
2023-03-05T07:57:10.904Z,51.81
2023-03-05T07:59:37.577Z,52.01
2023-03-05T08:02:04.186Z,51.41
2023-03-05T08:04:30.793Z,51.40
2023-03-05T08:06:57.407Z,51.19
2023-03-05T08:09:23.985Z,50.52
2023-03-05T08:11:50.545Z,50.73
2023-03-05T08:14:17.131Z,51.02
2023-03-05T08:16:44.518Z,50.73
2023-03-05T08:19:11.888Z,50.74
2023-03-05T08:21:38.502Z,50.11
2023-03-05T08:24:05.084Z,49.74
2023-03-05T08:26:31.705Z,50.52
2023-03-05T08:28:58.282Z,50.34
2023-03-05T08:31:24.936Z,49.82
2023-03-05T08:33:51.519Z,48.52
2023-03-05T08:36:18.117Z,48.33
2023-03-05T08:38:44.728Z,48.60
2023-03-05T08:41:11.329Z,47.80
2023-03-05T08:43:37.927Z,46.91
2023-03-05T08:46:04.736Z,47.43
2023-03-05T08:48:31.307Z,46.33
2023-03-05T08:50:57.919Z,46.60
2023-03-05T08:53:24.498Z,46.59
2023-03-05T08:55:51.267Z,45.70
2023-03-05T08:58:17.848Z,45.37
2023-03-05T09:00:44.460Z,47.47
2023-03-05T09:03:11.067Z,48.21
2023-03-05T09:05:39.083Z,46.99
2023-03-05T09:08:07.722Z,46.04
2023-03-05T09:10:34.361Z,46.14
2023-03-05T09:13:00.960Z,46.93
2023-03-05T09:15:27.556Z,46.70
2023-03-05T09:17:54.155Z,45.31
2023-03-05T09:20:20.747Z,45.22
2023-03-05T09:22:47.317Z,45.02
2023-03-05T09:25:13.921Z,45.56
2023-03-05T09:27:40.524Z,47.18
2023-03-05T09:30:07.222Z,48.13
2023-03-05T09:32:33.803Z,47.71
2023-03-05T09:35:00.398Z,48.84
2023-03-05T09:37:27.010Z,48.00
2023-03-05T09:39:53.675Z,47.75
2023-03-05T09:42:20.493Z,46.82
2023-03-05T09:44:47.090Z,45.91
2023-03-05T09:47:14.707Z,45.73
2023-03-05T09:49:41.444Z,43.95
2023-03-05T09:52:08.047Z,43.85
2023-03-05T09:54:34.638Z,44.75
2023-03-05T09:57:01.223Z,43.50
2023-03-05T09:59:27.813Z,44.49
2023-03-05T10:01:54.386Z,45.24
2023-03-05T10:04:21.187Z,45.04
2023-03-05T10:06:47.803Z,44.39
2023-03-05T10:09:14.365Z,43.17
2023-03-05T10:11:40.996Z,43.12
2023-03-05T10:14:07.586Z,41.49
2023-03-05T10:16:35.225Z,42.37
2023-03-05T10:19:01.794Z,42.73
2023-03-05T10:21:28.451Z,42.21
2023-03-05T10:23:55.072Z,42.18
2023-03-05T10:26:21.678Z,41.57
2023-03-05T10:28:48.270Z,43.25
2023-03-05T10:31:14.912Z,42.80
2023-03-05T10:33:41.487Z,43.34
2023-03-05T10:36:08.094Z,41.06
2023-03-05T10:38:34.679Z,42.64
2023-03-05T10:41:01.292Z,41.20
2023-03-05T10:43:27.910Z,39.15
2023-03-05T10:45:54.572Z,39.24
2023-03-05T10:48:21.197Z,38.04
2023-03-05T10:50:47.773Z,37.31
2023-03-05T10:53:14.401Z,37.69
2023-03-05T10:55:40.971Z,37.99
2023-03-05T10:58:07.618Z,39.40
2023-03-05T11:00:34.175Z,38.85
2023-03-05T11:03:00.785Z,38.81
2023-03-05T11:05:27.358Z,38.63
2023-03-05T11:07:53.951Z,38.53
2023-03-05T11:10:20.508Z,37.89
2023-03-05T11:12:47.115Z,36.65
2023-03-05T11:15:13.719Z,35.88
2023-03-05T11:17:40.609Z,38.48
2023-03-05T11:20:07.240Z,38.26
2023-03-05T11:22:33.812Z,38.89
2023-03-05T11:25:00.410Z,40.20
2023-03-05T11:27:27.157Z,39.66
2023-03-05T11:29:53.757Z,39.00
2023-03-05T11:32:20.418Z,37.16
2023-03-05T11:34:47.078Z,38.55
2023-03-05T11:37:13.677Z,40.08
2023-03-05T11:39:40.233Z,41.13
2023-03-05T11:42:06.834Z,40.33
2023-03-05T11:44:33.414Z,40.04
2023-03-05T11:46:59.992Z,39.40
2023-03-05T11:49:26.550Z,39.88
2023-03-05T11:51:53.163Z,40.84
2023-03-05T11:54:19.760Z,39.14
2023-03-05T11:56:46.411Z,39.87
2023-03-05T11:59:13.000Z,38.87
2023-03-05T12:01:39.588Z,39.75
2023-03-05T12:04:06.251Z,38.95
2023-03-05T12:06:32.825Z,38.29
2023-03-05T12:08:59.435Z,36.99
2023-03-05T12:11:26.001Z,37.97
2023-03-05T12:13:52.594Z,37.74
2023-03-05T12:16:19.264Z,38.83
2023-03-05T12:18:45.925Z,38.05
2023-03-05T12:21:12.518Z,39.84
2023-03-05T12:23:39.541Z,38.89
2023-03-05T12:26:06.709Z,38.53
2023-03-05T12:28:33.275Z,38.51
2023-03-05T12:30:59.903Z,37.13
2023-03-05T12:33:28.654Z,37.51
2023-03-05T12:35:55.250Z,36.13
2023-03-05T12:38:27.038Z,35.69
2023-03-05T12:40:53.839Z,36.49
2023-03-05T12:43:20.411Z,37.90
2023-03-05T12:45:47.030Z,37.14
2023-03-05T12:48:13.625Z,36.37
2023-03-05T12:50:40.216Z,37.03
2023-03-05T12:53:06.888Z,35.72
2023-03-05T12:55:33.504Z,34.76
2023-03-05T12:58:00.160Z,34.29
2023-03-05T13:00:26.744Z,33.84
2023-03-05T13:02:53.348Z,34.66
2023-03-05T13:05:19.932Z,34.05
2023-03-05T13:07:46.627Z,34.16
2023-03-05T13:10:16.024Z,33.78
2023-03-05T13:12:42.711Z,33.58
2023-03-05T13:15:09.273Z,34.37
2023-03-05T13:17:35.865Z,33.61
2023-03-05T13:20:02.440Z,33.73
2023-03-05T13:22:28.999Z,33.87
2023-03-05T13:24:55.583Z,33.61
2023-03-05T13:27:23.187Z,33.00
2023-03-05T13:29:49.965Z,32.52
2023-03-05T13:32:16.592Z,33.37
2023-03-05T13:34:47.500Z,33.57
2023-03-05T13:37:14.518Z,34.42
2023-03-05T13:39:41.076Z,35.04
2023-03-05T13:42:07.648Z,35.02
2023-03-05T13:44:34.237Z,35.04
2023-03-05T13:47:03.041Z,35.46
2023-03-05T13:49:29.649Z,34.29
2023-03-05T13:51:56.241Z,33.28
2023-03-05T13:54:22.820Z,33.02
2023-03-05T13:56:49.409Z,33.11
2023-03-05T13:59:16.008Z,33.52
2023-03-05T14:01:42.573Z,32.19
2023-03-05T14:04:09.243Z,32.47
2023-03-05T14:06:35.853Z,32.42
2023-03-05T14:09:02.486Z,31.73
2023-03-05T14:11:29.097Z,32.23
2023-03-05T14:13:55.694Z,31.97
2023-03-05T14:16:22.498Z,32.03
2023-03-05T14:18:49.117Z,31.97
2023-03-05T14:21:15.727Z,31.68
2023-03-05T14:23:42.293Z,31.63
2023-03-05T14:26:08.932Z,32.61
2023-03-05T14:28:35.523Z,32.92
2023-03-05T14:31:02.164Z,31.26
2023-03-05T14:33:28.765Z,32.09
2023-03-05T14:35:55.442Z,32.69
2023-03-05T14:38:22.025Z,32.72
2023-03-05T14:40:48.626Z,32.46
2023-03-05T14:43:15.203Z,33.43
2023-03-05T14:45:41.858Z,32.22
2023-03-05T14:48:08.464Z,32.55
2023-03-05T14:50:35.036Z,31.20
2023-03-05T14:53:01.655Z,32.84
2023-03-05T14:55:28.423Z,32.30
2023-03-05T14:57:55.124Z,32.19
2023-03-05T15:00:21.719Z,31.88
2023-03-05T15:02:48.376Z,31.53
2023-03-05T15:05:14.959Z,32.01
2023-03-05T15:07:41.608Z,32.15
2023-03-05T15:10:08.291Z,32.54
2023-03-05T15:12:34.884Z,32.57
2023-03-05T15:15:01.528Z,32.21
2023-03-05T15:17:28.125Z,34.32
2023-03-05T15:19:54.694Z,35.80
2023-03-05T15:22:21.247Z,35.26
2023-03-05T15:24:47.845Z,34.58
2023-03-05T15:27:14.652Z,33.87
2023-03-05T15:29:41.291Z,33.55
2023-03-05T15:32:07.931Z,32.89
2023-03-05T15:34:34.563Z,33.23
2023-03-05T15:37:01.142Z,34.39
2023-03-05T15:39:27.779Z,36.53
2023-03-05T15:41:54.390Z,38.95
2023-03-05T15:44:20.975Z,39.52
2023-03-05T15:46:47.670Z,38.79
2023-03-05T15:49:14.623Z,40.41
2023-03-05T15:51:41.243Z,40.34
2023-03-05T15:54:07.843Z,40.43
2023-03-05T15:56:34.427Z,40.74
2023-03-05T15:59:00.995Z,39.47
2023-03-05T16:01:27.629Z,38.53
2023-03-05T16:03:54.236Z,38.61
2023-03-05T16:06:20.999Z,37.80
2023-03-05T16:08:47.617Z,38.52
2023-03-05T16:11:14.194Z,39.37
2023-03-05T16:13:40.805Z,39.25
2023-03-05T16:16:07.464Z,39.24
2023-03-05T16:18:34.080Z,39.15
2023-03-05T16:21:00.983Z,39.40
2023-03-05T16:23:27.582Z,39.71
2023-03-05T16:25:54.210Z,39.92
2023-03-05T16:28:20.781Z,40.56
2023-03-05T16:30:47.378Z,42.66
2023-03-05T16:33:13.936Z,43.02
2023-03-05T16:35:40.555Z,42.97
2023-03-05T16:38:07.139Z,42.13
2023-03-05T16:40:56.546Z,42.12
2023-03-05T16:43:20.304Z,43.29
2023-03-05T16:45:46.962Z,42.04
2023-03-05T16:48:13.537Z,41.51
2023-03-05T16:50:40.161Z,41.85
2023-03-05T16:53:06.755Z,42.50
2023-03-05T16:55:33.330Z,42.99
2023-03-05T16:57:59.939Z,43.54
2023-03-05T17:00:26.517Z,43.74
2023-03-05T17:02:53.126Z,43.68
2023-03-05T17:05:19.701Z,44.06
2023-03-05T17:07:46.304Z,44.18
2023-03-05T17:10:12.870Z,44.10
2023-03-05T17:12:39.436Z,43.75
2023-03-05T17:15:06.047Z,43.00
2023-03-05T17:17:32.608Z,43.37
2023-03-05T17:19:59.210Z,42.53
2023-03-05T17:22:25.774Z,42.10
2023-03-05T17:24:52.463Z,41.78
2023-03-05T17:27:19.099Z,41.60
2023-03-05T17:29:45.690Z,42.06
2023-03-05T17:32:12.348Z,41.82
2023-03-05T17:34:39.155Z,42.13
2023-03-05T17:37:05.722Z,41.87
2023-03-05T17:39:32.281Z,42.47
2023-03-05T17:41:58.907Z,42.60
2023-03-05T17:44:25.498Z,42.43
2023-03-05T17:46:52.137Z,42.52
2023-03-05T17:49:18.752Z,42.45
2023-03-05T17:51:45.355Z,42.82
2023-03-05T17:54:11.939Z,42.22
2023-03-05T17:56:38.547Z,42.71
2023-03-05T17:59:05.114Z,43.47
2023-03-05T18:01:31.853Z,44.00
2023-03-05T18:03:58.518Z,43.44
2023-03-05T18:06:25.245Z,43.11
2023-03-05T18:08:51.815Z,43.44
2023-03-05T18:11:18.498Z,43.09
2023-03-05T18:13:45.081Z,43.55
2023-03-05T18:16:11.697Z,44.19
2023-03-05T18:18:38.325Z,43.86
2023-03-05T18:21:04.924Z,44.13
2023-03-05T18:23:31.503Z,44.96
2023-03-05T18:25:58.250Z,44.71
2023-03-05T18:28:24.839Z,44.83
2023-03-05T18:30:51.468Z,44.98
2023-03-05T18:33:18.221Z,46.11
2023-03-05T18:35:44.925Z,45.54
2023-03-05T18:38:11.599Z,45.66
2023-03-05T18:40:38.165Z,45.55
2023-03-05T18:43:04.776Z,45.56
2023-03-05T18:45:31.336Z,45.97
2023-03-05T18:47:57.958Z,46.13
2023-03-05T18:50:24.553Z,45.97
2023-03-05T18:52:51.143Z,45.97
2023-03-05T18:55:18.247Z,45.53
2023-03-05T18:57:44.829Z,45.61
2023-03-05T19:00:11.402Z,45.86
2023-03-05T19:02:38.057Z,46.17
2023-03-05T19:05:04.711Z,46.34
2023-03-05T19:07:31.316Z,46.56
2023-03-05T19:09:59.644Z,46.49
2023-03-05T19:12:26.421Z,47.54
2023-03-05T19:14:53.036Z,46.72
2023-03-05T19:17:19.643Z,46.20
2023-03-05T19:19:46.226Z,46.27
2023-03-05T19:22:12.827Z,45.72
2023-03-05T19:24:39.384Z,47.00
2023-03-05T19:27:05.950Z,47.88
2023-03-05T19:29:32.563Z,48.51
2023-03-05T19:31:59.163Z,48.72
2023-03-05T19:34:25.775Z,47.98
2023-03-05T19:36:52.565Z,47.16
2023-03-05T19:39:19.138Z,47.81
2023-03-05T19:41:46.045Z,48.20
2023-03-05T19:44:12.642Z,48.90
2023-03-05T19:46:39.310Z,48.78
2023-03-05T19:49:06.159Z,48.48
2023-03-05T19:51:32.930Z,48.23
2023-03-05T19:53:59.561Z,49.17
2023-03-05T19:56:26.176Z,48.39
2023-03-05T19:58:52.746Z,48.76
2023-03-05T20:01:19.422Z,49.85
2023-03-05T20:03:46.017Z,50.25
2023-03-05T20:06:12.599Z,50.44
2023-03-05T20:08:39.234Z,50.68
2023-03-05T20:11:05.798Z,50.97
2023-03-05T20:13:32.462Z,50.66
2023-03-05T20:15:59.134Z,50.78
2023-03-05T20:18:25.797Z,51.29
2023-03-05T20:20:52.405Z,50.94
2023-03-05T20:23:18.983Z,52.06
2023-03-05T20:25:45.533Z,51.52
2023-03-05T20:28:12.127Z,51.08
2023-03-05T20:30:38.718Z,50.47
2023-03-05T20:33:05.311Z,51.25
2023-03-05T20:35:31.933Z,50.94
2023-03-05T20:37:58.560Z,51.31
2023-03-05T20:40:25.137Z,51.07
2023-03-05T20:42:51.798Z,51.86
2023-03-05T20:45:18.411Z,51.41
2023-03-05T20:47:44.989Z,51.15
2023-03-05T20:50:11.594Z,50.89
2023-03-05T20:52:38.223Z,50.28
2023-03-05T20:55:04.832Z,49.03
2023-03-05T20:57:31.400Z,48.71
2023-03-05T20:59:57.978Z,49.32
2023-03-05T21:02:24.557Z,50.53
2023-03-05T21:04:51.203Z,49.25
2023-03-05T21:07:17.767Z,48.88
2023-03-05T21:09:44.351Z,48.48
2023-03-05T21:12:10.962Z,48.72
2023-03-05T21:14:37.565Z,49.28
2023-03-05T21:17:04.165Z,49.63
2023-03-05T21:19:33.334Z,48.30
2023-03-05T21:22:00.212Z,47.94
2023-03-05T21:24:26.794Z,47.75
2023-03-05T21:26:53.374Z,47.70
2023-03-05T21:29:19.949Z,47.14
2023-03-05T21:31:46.691Z,46.64
2023-03-05T21:34:13.310Z,47.50
2023-03-05T21:36:40.120Z,46.64
2023-03-05T21:39:06.692Z,47.01
2023-03-05T21:41:33.280Z,45.96
2023-03-05T21:43:59.886Z,46.52
2023-03-05T21:46:26.443Z,46.38
2023-03-05T21:48:53.028Z,46.21
2023-03-05T21:51:19.637Z,47.01
2023-03-05T21:53:46.404Z,47.31
2023-03-05T21:56:13.106Z,47.18
2023-03-05T21:58:39.746Z,46.70
2023-03-05T22:01:06.362Z,47.23
2023-03-05T22:03:33.011Z,47.15
2023-03-05T22:05:59.643Z,47.12
2023-03-05T22:08:26.199Z,46.33
2023-03-05T22:10:52.806Z,46.00
2023-03-05T22:13:19.388Z,46.04
2023-03-05T22:15:45.940Z,46.45
2023-03-05T22:18:12.557Z,46.07
2023-03-05T22:20:39.123Z,45.70
2023-03-05T22:23:05.701Z,45.80
2023-03-05T22:25:32.283Z,46.14
2023-03-05T22:27:58.848Z,46.44
2023-03-05T22:30:25.460Z,46.92
2023-03-05T22:32:52.034Z,47.21
2023-03-05T22:35:19.762Z,47.44
2023-03-05T22:37:46.376Z,46.85
2023-03-05T22:40:13.340Z,46.50
2023-03-05T22:42:39.904Z,46.03
2023-03-05T22:45:07.493Z,46.01
2023-03-05T22:47:34.080Z,45.90
2023-03-05T22:50:01.274Z,45.45
2023-03-05T22:52:27.867Z,45.44
2023-03-05T22:54:55.985Z,45.53
2023-03-05T22:57:22.691Z,45.90
2023-03-05T22:59:49.239Z,46.38
2023-03-05T23:02:15.797Z,46.46
2023-03-05T23:04:42.419Z,46.29
2023-03-05T23:07:09.051Z,46.70
2023-03-05T23:09:35.680Z,45.65
2023-03-05T23:12:02.272Z,45.44
2023-03-05T23:14:28.891Z,44.62
2023-03-05T23:16:55.449Z,45.10
2023-03-05T23:19:22.054Z,44.50
2023-03-05T23:21:48.626Z,44.84
2023-03-05T23:24:15.178Z,45.35
2023-03-05T23:26:41.776Z,45.29
2023-03-05T23:29:08.523Z,44.82
2023-03-05T23:31:35.137Z,44.72
2023-03-05T23:34:01.699Z,44.98
2023-03-05T23:36:28.269Z,44.61
2023-03-05T23:38:54.887Z,44.57
2023-03-05T23:41:21.469Z,44.79
2023-03-05T23:43:48.109Z,45.06
2023-03-05T23:46:17.772Z,44.85
2023-03-05T23:48:44.412Z,44.60
2023-03-05T23:51:10.976Z,44.55
2023-03-05T23:53:37.588Z,44.39
2023-03-05T23:56:05.175Z,44.17
2023-03-05T23:58:31.760Z,43.99
